OMHORANGE COUNTY
METARs for airports near OMH, sorted by distance:
N 0 nm 464' KOMH 142315Z 00000KT 10SM CLR 32/21 A2998
SW 7 nm 454' KGVE 142315Z 20003KT 10SM SCT095 32/23 A2997
S 14 nm 493' KLKU 142315Z 17004KT 10SM CLR 31/22 A2999
NE 18 nm 315' KCJR 142315Z 17003KT 10SM CLR 34/18 A2996
W 20 nm 640' KCHO 142253Z 16003KT 10SM SCT100 BKN110 34/18 A2997
NE 25 nm 336' KHWY 142315Z 16004KT 10SM CLR 33/18 A2996
E 28 nm 85' KEZF 142315Z 00000KT 10SM CLR 33/22 A2994
E 29 nm 219' KRMN 142315Z 20005KT 10SM CLR 34/17 A2994
NW 33 nm 902' KLUA 142315Z 00000KT 10SM 34/17 A2998
NE 37 nm 192' KHEF 142256Z 17007KT 10SM CLR 33/22 A2995
NE 38 nm 10' KNYG 142256Z 5SM CLR 34/21 A2995
W 40 nm 1201' KSHD 142315Z 25007KT 10SM CLR 34/16 A3003
N 41 nm 703' KFRR 142315Z 18005KT SCT100 32/18 A2996
SE 43 nm 206' KOFP 142254Z 22005KT 10SM CLR 35/21 A2998
W 43 nm 1165' KVBW 142315Z 29006KT 10SM SCT095 33/16 A3000
NE 49 nm 73' KDAA 142255Z 15005KT 10SM CLR 35/19 A2992
NE 50 nm 312' KIAD 142252Z 20008KT 10SM FEW090 FEW250 34/18 A2994
N 54 nm 726' KOKV 142315Z 15006KT 10SM OVC090 32/17 A2996
NE 54 nm 389' KJYO 142335Z 22004KT 10SM CLR 34/21 A2996
SE 56 nm 236' KFCI 142256Z 20004KT 10SM CLR 33/23 A2999
SE 56 nm 167' KRIC 142254Z 20007KT 10SM FEW060 34/22 A2998
S 56 nm 415' KFVX 142315Z 20004KT 10SM CLR 31/22 A2998
E 59 nm 135' KXSA 142315Z 16003KT 10SM CLR 33/25 A2998
NE 59 nm 14' KDCA 142252Z 21009KT 10SM FEW080 FEW250 36/16 A2993
NE 64 nm 279' KADW 142255Z 13007KT 10SM CLR 32/23 A2993
NE 68 nm 48' KCGS 142325Z 12007KT 090V150 10SM CLR 33/23 A2995
SE 68 nm 192' KPTB 142315Z 00000KT 10SM CLR 32/25 A3000
NE 68 nm 538' KGAI 142256Z 20006KT 10SM CLR A2997
N 69 nm 564' KMRB 142253Z 28008KT 10SM SCT110 35/13 A2993
S 70 nm 437' KBKT 142255Z 19004KT 10SM CLR 33/23 A3000
SE 74 nm 20' KFYJ 142315Z 00000KT 7SM CLR 32/25 A2999
NE 76 nm 308' KFDK 142247Z 18005KT 10SM CLR 36/17 A2994
E 77 nm 38' KNHK 142252Z 14007KT 10SM CLR 32/25 A2996
SW 77 nm 938' KLYH 142254Z 22006KT 10SM SCT090 34/17 A3002
NE 78 nm 150' KFME 142329Z 14005KT 10SM CLR 30/23 A2997
NE 85 nm 143' KBWI 142254Z 16007KT 10SM FEW065 FEW250 32/22 A2994
W 86 nm 3792' KHSP 142315Z 27008KT 250V310 10SM 28/16 A3022
N 88 nm 775' KCBE 142325Z 26011KT 210V270 10SM CLR 34/14 A3002
N 89 nm 703' KHGR 142253Z 16005KT 10SM CLR 35/18 A2995
S 89 nm 328' KLVL 142315Z 00000KT 10SM CLR 33/27 A3001
S 90 nm 503' KCXE 142315Z 00000KT 10SM BKN120 31/25 A3001
SE 90 nm 111' KAKQ 142254Z 17006KT 10SM CLR 31/24 A2999
NW 93 nm 1987' KEKN 142251Z 27007KT 10SM CLR 31/17 A3009
S 93 nm 441' KAVC 142315Z 00000KT 10SM CLR 33/27 A3007
NE 95 nm 789' KDMW 142320Z 18003KT 10SM CLR 36/18 A2997
SE 95 nm 11' KFAF 130055Z 17007KT 5SM RA OVC035 23/22 A3018
E 96 nm 19' KCGE 142325Z 18007KT 10SM CLR 31/22 A2997
S 97 nm 126' KEMV 142335Z 00000KT 10SM CLR 30/25 A3002
E 98 nm 72' KESN 142245Z 17006KT 10SM CLR 31/23 A2997
SE 99 nm 42' KPHF 142254Z 18013KT 10SM CLR 33/24 A2999
TAFs for airports near OMH, sorted by distance:
W 20 nm 640' KCHO TAF
  AMD KCHO 142008Z 1420/1518 16008G16KT P6SM FEW250
  FM150000 00000KT P6SM FEW250
  FM150500 18005KT P6SM FEW250
  FM151600 26003KT P6SM FEW200
NE 38 nm 10' KNYG TAF KNYG 1321/1421 VRB06KT 9999 SKC QNH3005INS
  FM140600 VRB06KT 9999 SCT200 QNH2995INS LAST NO
  AMDS AFT 1321 NEXT 1509 AUTOMATED SENSOR METWATCH 1321 TIL 1511 T32/1321Z T22/1411Z
NE 49 nm 73' KDAA TAF KDAA 121200Z 1212/1318 VRB05KT 9999 VCSH SCT030 BKN060 OVC100 QNH2996INS
  BECMG 1212/1213 03006KT 9000 -SHRA FEW015 BKN030 OVC070 QNH3000INS
  BECMG 1213/1214 04007KT 8000 -SHRA VCTS SCT015CB OVC030 QNH3011INS
  TEMPO 1214/1301 VRB12G20KT 4800 TSRA BR SCT008 OVC015CB
  BECMG 1302/1303 VRB06KT 9000 -RA OVC010 QNH3010INS
  BECMG 1306/1307 VRB05KT 4800 -RA BR OVC008 QNH3011INS
  BECMG 1312/1313 16007KT 8000 -SHRA VCTS SCT009 BKN015CB OVC030 QNH3012INS TX27/1220Z TN24/1310Z
NE 50 nm 312' KIAD KIAD 142102Z 1421/1524 23009KT P6SM FEW250
  FM142300 21005KT P6SM FEW250
  FM150300 18004KT P6SM FEW250
  FM151600 26005KT P6SM FEW250
SE 56 nm 167' KRIC KRIC 141722Z 1418/1518 19008KT P6SM SCT060
  FM142300 22005KT P6SM SKC
NE 59 nm 14' KDCA KDCA 142102Z 1421/1524 21008G16KT P6SM VCTS SCT060CB SCT250
  FM142200 08008G16KT P6SM FEW200
  FM150500 17005KT P6SM FEW200
  FM151600 26005KT P6SM FEW200
NE 64 nm 279' KADW TAF
  AMD KADW 141910Z 1419/1523 27012KT 9999 VCTS SCT050CB QNH2997INS
  TEMPO 1419/1421 29012G18KT 8000 -TSRA BKN050CB
  BECMG 1420/1421 22006KT 9999 NSW SCT050 QNH2994INS
  BECMG 1500/1501 17006KT 9999 FEW070 QNH2992INS
  BECMG 1506/1507 26006KT 9999 SCT060 SCT250 QNH2986INS
  BECMG 1518/1519 23012KT 9999 -SHRA VCTS BKN040CB QNH2983INS TX38/1419Z TN23/1509Z
N 69 nm 564' KMRB KMRB 141727Z 1418/1518 25006KT P6SM FEW250
  FM142300 21005KT P6SM FEW250
  FM150300 17004KT P6SM FEW250
  FM151000 23005KT P6SM FEW200
  FM151400 28004KT P6SM FEW200
E 77 nm 38' KNHK TAF KNHK 1423/1523 17010KT 9999 VCTS FEW030CB SCT060 BKN100 QNH2993INS
  BECMG 1504/1506 20008KT 9999 NSW FEW050 SCT070 BKN090 QNH2989INS
  BECMG 1510/1512 19007KT 9999 FEW120 QNH2987INS AUTOMATED SENSOR METWATCH 1423 TIL 1508 TX34/1521Z TN27/1509Z FN00277
SW 77 nm 938' KLYH TAF KLYH 141720Z 1418/1518 26005KT P6SM SCT060
  FM142300 VRB02KT P6SM FEW250
NE 85 nm 143' KBWI TAF
  AMD KBWI 142102Z 1421/1524 18009G15KT P6SM VCTS SCT060CB SCT250
  FM142300 20004KT P6SM FEW200
  FM150500 17004KT P6SM FEW250
  FM151600 25005KT P6SM FEW200
NW 93 nm 1987' KEKN TAF
  AMD KEKN 141918Z 1419/1518 26008G14KT P6SM SCT070
  FM150100 00000KT P6SM SKC
  FM150900 00000KT 3SM BR SCT002
  FM151200 23003KT P6SM SCT120
SE 95 nm 11' KFAF TAF KFAF 121800Z 1218/1324 18009KT 6000 -SHRA BR VCTS BKN025CB BKN040 OVC060 QNH3006INS
  TEMPO 1218/1223 VRB12G18KT 8000 -TSRA SCT015CB BKN020 OVC035
  BECMG 1223/1224 16006KT 8000 -SHRA BR BKN022 OVC034 QNH3007INS TX28/1318Z TN24/1308Z
SE 99 nm 42' KPHF KPHF 141722Z 1418/1518 22007KT P6SM SCT060
  FM142300 22005KT P6SM SKC

Shortcut to this page: http://wxbay.com.

Data may contain errors.